Time;durP1;ratioP1;P1;durP2;ratioP2;P2;SDS_P1;SDS_P2;PMS_P1;PMS_P2;Temp;Humidity;BMP_temperature;BMP_pressure;BME280_temperature;BME280_humidity;BME280_pressure;Samples;Min_cycle;Max_cycle;Signal;HPM_P1;HPM_P2
2023/10/05 00:03:05;;;;;;;4.45;1.80;;;15.20;92.90;;;;;;5074329;28;20063;-77
2023/10/05 00:05:35;;;;;;;6.50;2.08;;;15.20;92.90;;;;;;5075715;28;20032;-77
2023/10/05 00:08:03;;;;;;;8.82;2.47;;;15.20;93.00;;;;;;5076388;28;20032;-77
2023/10/05 00:10:30;;;;;;;8.70;1.60;;;15.10;93.00;;;;;;5076288;28;20074;-77
2023/10/05 00:13:00;;;;;;;4.82;1.73;;;15.10;93.00;;;;;;5075350;28;20048;-77
2023/10/05 00:15:27;;;;;;;3.97;1.63;;;15.20;93.10;;;;;;5058646;28;20036;-77
2023/10/05 00:17:54;;;;;;;8.48;1.70;;;15.10;93.10;;;;;;5058512;28;20026;-77
2023/10/05 00:20:33;;;;;;;5.60;1.65;;;15.10;93.10;;;;;;5058323;28;20029;-76
2023/10/05 00:23:03;;;;;;;5.53;1.80;;;15.10;93.10;;;;;;5058375;28;20025;-77
2023/10/05 00:25:32;;;;;;;6.47;1.70;;;15.10;93.00;;;;;;5058403;28;20052;-77
2023/10/05 00:28:00;;;;;;;7.30;1.80;;;15.20;93.00;;;;;;5058297;28;20025;-76
2023/10/05 00:30:26;;;;;;;3.30;1.45;;;15.20;92.90;;;;;;5075103;28;20036;-76
2023/10/05 00:33:00;;;;;;;4.53;1.60;;;15.10;92.90;;;;;;5058338;28;20472;-77
2023/10/05 00:35:28;;;;;;;6.20;1.65;;;15.10;92.90;;;;;;5074766;28;20056;-77
2023/10/05 00:37:57;;;;;;;6.15;1.40;;;15.10;93.10;;;;;;5058061;28;20036;-77
2023/10/05 00:40:42;;;;;;;6.65;2.15;;;15.10;93.00;;;;;;5057968;28;20064;-77
2023/10/05 00:43:19;;;;;;;5.28;1.60;;;15.10;93.00;;;;;;5074945;28;20027;-77
2023/10/05 00:45:47;;;;;;;5.88;1.63;;;15.00;93.10;;;;;;5075704;28;20033;-77
2023/10/05 00:48:26;;;;;;;6.85;1.90;;;15.10;93.10;;;;;;5057917;28;20088;-77
2023/10/05 00:50:54;;;;;;;6.68;2.10;;;15.00;93.20;;;;;;5075642;28;20036;-77
2023/10/05 00:53:21;;;;;;;4.00;2.17;;;14.90;93.20;;;;;;5075521;28;20025;-77
2023/10/05 00:55:52;;;;;;;3.00;1.73;;;15.00;93.30;;;;;;5057844;28;20036;-77
2023/10/05 00:58:17;;;;;;;8.00;2.20;;;15.00;93.20;;;;;;5075343;28;20025;-77
2023/10/05 01:00:53;;;;;;;4.78;1.90;;;15.00;93.20;;;;;;5057688;28;20040;-77
2023/10/05 01:05:57;;;;;;;4.93;1.58;;;14.90;93.30;;;;;;5075393;28;20116;-77
2023/10/05 01:08:23;;;;;;;4.97;1.90;;;14.90;93.30;;;;;;5059491;28;20024;-77
2023/10/05 01:10:53;;;;;;;3.38;1.70;;;14.90;93.30;;;;;;5074253;28;20025;-76
2023/10/05 01:13:33;;;;;;;6.03;2.20;;;14.90;93.40;;;;;;5074269;28;20017;-77
2023/10/05 01:16:15;;;;;;;5.35;1.75;;;14.90;93.40;;;;;;5056837;28;20023;-77
2023/10/05 01:18:41;;;;;;;5.07;1.55;;;14.80;93.50;;;;;;5075031;28;20028;-77
2023/10/05 01:21:08;;;;;;;5.53;1.77;;;14.80;93.50;;;;;;5074983;28;20041;-77
2023/10/05 01:23:41;;;;;;;4.00;1.50;;;14.90;94.00;;;;;;5057244;28;20029;-77
2023/10/05 01:26:10;;;;;;;4.93;1.83;;;14.90;93.60;;;;;;5075068;28;20017;-77
2023/10/05 01:28:37;;;;;;;3.75;1.60;;;14.90;93.60;;;;;;5074837;28;20024;-77
2023/10/05 01:31:07;;;;;;;8.55;1.77;;;14.80;93.70;;;;;;5074766;28;20534;-77
2023/10/05 01:33:34;;;;;;;6.25;1.80;;;14.80;93.60;;;;;;5074531;28;20021;-77
2023/10/05 01:35:59;;;;;;;4.50;1.52;;;14.80;93.70;;;;;;5074722;28;20041;-77
2023/10/05 01:38:25;;;;;;;6.25;1.88;;;14.80;93.70;;;;;;5056949;28;20071;-77
2023/10/05 01:40:54;;;;;;;6.97;2.08;;;14.70;93.90;;;;;;5056976;28;20510;-76
2023/10/05 01:43:20;;;;;;;4.70;1.65;;;14.70;93.90;;;;;;5056857;28;20020;-77
2023/10/05 01:45:45;;;;;;;3.28;1.88;;;14.80;93.90;;;;;;5074473;28;20021;-77
2023/10/05 01:48:18;;;;;;;9.23;2.58;;;14.70;93.90;;;;;;5056796;28;20056;-76
2023/10/05 01:50:44;;;;;;;5.15;2.30;;;14.70;94.10;;;;;;5074471;28;20025;-77
2023/10/05 01:53:18;;;;;;;7.05;2.00;;;14.70;94.10;;;;;;5074345;28;20021;-77
2023/10/05 01:55:49;;;;;;;8.77;2.22;;;14.70;94.20;;;;;;5056653;28;20025;-77
2023/10/05 01:58:26;;;;;;;4.63;1.92;;;14.70;94.20;;;;;;5074432;28;20029;-77
2023/10/05 02:00:51;;;;;;;6.15;2.15;;;14.70;94.10;;;;;;5074253;28;20047;-77
2023/10/05 02:03:18;;;;;;;5.63;2.08;;;14.70;94.00;;;;;;5074315;28;20017;-77
2023/10/05 02:05:46;;;;;;;4.03;1.50;;;14.70;94.10;;;;;;5074107;28;20017;-77
2023/10/05 02:08:14;;;;;;;5.00;1.90;;;14.70;94.10;;;;;;5056386;28;20025;-76
2023/10/05 02:10:40;;;;;;;3.05;1.88;;;14.70;94.20;;;;;;5056536;28;20104;-77
2023/10/05 02:13:11;;;;;;;6.10;1.83;;;14.70;94.20;;;;;;5073969;28;20029;-77
2023/10/05 02:15:41;;;;;;;5.35;1.92;;;14.70;94.20;;;;;;5056294;28;20040;-77
2023/10/05 02:18:22;;;;;;;5.13;1.95;;;14.70;94.20;;;;;;5056270;28;20025;-76
2023/10/05 02:20:51;;;;;;;5.75;1.70;;;14.70;94.20;;;;;;5073897;28;20384;-77
2023/10/05 02:23:25;;;;;;;4.93;1.60;;;14.70;94.20;;;;;;5056091;28;20013;-77
2023/10/05 02:26:00;;;;;;;6.53;1.92;;;14.70;94.30;;;;;;5072297;28;20070;-76
2023/10/05 02:28:26;;;;;;;8.45;2.33;;;14.70;94.30;;;;;;5073666;28;20029;-77
2023/10/05 02:30:59;;;;;;;5.85;1.80;;;14.70;94.20;;;;;;5073653;28;20055;-77
2023/10/05 02:33:27;;;;;;;5.10;2.17;;;14.70;94.20;;;;;;5073442;28;20055;-77
2023/10/05 02:35:59;;;;;;;5.25;1.90;;;14.70;94.20;;;;;;5055596;28;20067;-77
2023/10/05 02:38:25;;;;;;;6.82;2.25;;;14.70;94.20;;;;;;5073624;28;20025;-77
2023/10/05 02:41:03;;;;;;;7.20;2.35;;;14.60;94.30;;;;;;5072549;28;20086;-77
2023/10/05 02:43:28;;;;;;;4.10;2.13;;;14.60;94.30;;;;;;5073636;28;20047;-77
2023/10/05 02:46:01;;;;;;;7.20;2.30;;;14.60;94.40;;;;;;5073409;28;20029;-77
2023/10/05 02:48:26;;;;;;;;;;;14.50;94.60;;;;;;5056157;28;20028;-77
2023/10/05 02:50:52;;;;;;;10.00;1.70;;;14.50;94.60;;;;;;5073395;28;19909;-77
2023/10/05 02:53:22;;;;;;;4.43;2.10;;;14.50;94.60;;;;;;5055841;28;20036;-77
2023/10/05 02:55:51;;;;;;;6.00;2.35;;;14.50;94.60;;;;;;5055721;28;20024;-77
2023/10/05 02:58:17;;;;;;;7.30;2.17;;;14.50;94.60;;;;;;5055584;28;20372;-77
2023/10/05 03:00:44;;;;;;;8.02;1.77;;;14.50;94.60;;;;;;5055669;28;20039;-77
2023/10/05 03:03:14;;;;;;;4.97;1.65;;;14.50;94.60;;;;;;5055618;28;20017;-76
2023/10/05 03:05:41;;;;;;;3.38;2.08;;;14.50;94.70;;;;;;5055544;28;20036;-77
2023/10/05 03:08:09;;;;;;;6.53;2.55;;;14.50;94.80;;;;;;5073293;28;20021;-77
2023/10/05 03:10:35;;;;;;;7.20;1.90;;;14.50;94.80;;;;;;5073141;28;20025;-77
2023/10/05 03:13:03;;;;;;;6.53;1.65;;;14.50;94.70;;;;;;5073123;28;20021;-77
2023/10/05 03:15:29;;;;;;;7.75;2.40;;;14.50;94.80;;;;;;5073083;28;20093;-77
2023/10/05 03:17:57;;;;;;;9.07;2.63;;;14.50;94.70;;;;;;5073009;28;20037;-77
2023/10/05 03:20:26;;;;;;;6.50;2.38;;;14.50;94.70;;;;;;5073119;28;20029;-77
2023/10/05 03:22:55;;;;;;;3.97;1.77;;;14.50;94.80;;;;;;5072216;28;20380;-76
2023/10/05 03:25:21;;;;;;;7.82;2.13;;;14.40;94.80;;;;;;5073002;28;20540;-77
2023/10/05 03:27:48;;;;;;;4.63;1.77;;;14.40;94.90;;;;;;5055317;28;20024;-77
2023/10/05 03:30:14;;;;;;;6.85;1.83;;;14.40;94.90;;;;;;5072063;28;20021;-77
2023/10/05 03:32:41;;;;;;;6.32;2.17;;;14.40;94.90;;;;;;5072033;28;20040;-77
2023/10/05 03:35:11;;;;;;;6.05;2.20;;;14.40;94.90;;;;;;5055093;28;20063;-76
2023/10/05 03:37:41;;;;;;;6.88;1.80;;;14.40;94.80;;;;;;5056237;28;20036;-76
2023/10/05 03:40:19;;;;;;;9.50;2.55;;;14.40;94.90;;;;;;5059141;28;20029;-77
2023/10/05 03:42:46;;;;;;;5.00;1.95;;;14.40;95.00;;;;;;5059208;28;20029;-77
2023/10/05 03:45:16;;;;;;;6.95;1.85;;;14.40;95.00;;;;;;5077028;28;20013;-77
2023/10/05 03:47:43;;;;;;;5.07;2.08;;;14.40;94.90;;;;;;5059129;28;20044;-77
2023/10/05 03:50:16;;;;;;;4.93;1.80;;;14.40;94.80;;;;;;5076675;28;20035;-77
2023/10/05 03:52:44;;;;;;;7.45;2.30;;;14.40;94.90;;;;;;5059156;28;20499;-77
2023/10/05 03:55:11;;;;;;;7.20;2.75;;;14.40;94.90;;;;;;5059018;28;20025;-77
2023/10/05 03:57:44;;;;;;;7.28;2.65;;;14.40;94.90;;;;;;5058825;28;20021;-77
2023/10/05 04:02:47;;;;;;;6.18;1.90;;;14.30;95.00;;;;;;5076558;28;19904;-77
2023/10/05 04:05:17;;;;;;;10.00;2.22;;;14.30;95.10;;;;;;5058791;28;20025;-77
2023/10/05 04:07:43;;;;;;;6.55;2.10;;;14.30;95.20;;;;;;5058774;28;20112;-77
2023/10/05 04:10:13;;;;;;;6.50;2.08;;;14.30;95.10;;;;;;5058640;28;20032;-77
2023/10/05 04:12:40;;;;;;;6.47;2.10;;;14.30;95.10;;;;;;5075389;28;20036;-77
2023/10/05 04:15:11;;;;;;;5.63;1.83;;;14.20;95.20;;;;;;5076253;28;20017;-77
2023/10/05 04:17:40;;;;;;;8.20;2.13;;;14.30;95.20;;;;;;5075393;28;20416;-77
2023/10/05 04:22:51;;;;;;;5.85;2.20;;;14.30;95.10;;;;;;5075541;28;20083;-77
2023/10/05 04:25:17;;;;;;;5.53;2.20;;;14.30;95.20;;;;;;5075290;28;20041;-77
2023/10/05 04:27:48;;;;;;;7.50;2.30;;;14.20;95.20;;;;;;5041886;28;20025;-77
2023/10/05 04:30:21;;;;;;;7.47;2.15;;;14.20;95.30;;;;;;5075139;28;20040;-77
2023/10/05 04:32:48;;;;;;;7.70;2.08;;;14.20;95.30;;;;;;5075058;28;20052;-77
2023/10/05 04:35:22;;;;;;;9.40;2.15;;;14.20;95.20;;;;;;5075514;28;20064;-77
2023/10/05 04:37:49;;;;;;;7.95;1.85;;;14.30;95.20;;;;;;5058066;28;20056;-77
2023/10/05 04:40:17;;;;;;;5.68;2.13;;;14.20;95.40;;;;;;5074974;28;20040;-77
2023/10/05 04:42:43;;;;;;;5.45;1.92;;;14.20;95.40;;;;;;5075753;28;20048;-77
2023/10/05 04:45:14;;;;;;;6.45;2.33;;;14.20;95.40;;;;;;5074812;28;20032;-77
2023/10/05 04:47:39;;;;;;;6.68;2.47;;;14.20;95.40;;;;;;5057961;28;20009;-77
2023/10/05 04:50:06;;;;;;;5.15;2.13;;;14.30;95.30;;;;;;5056923;28;20036;-77
2023/10/05 04:52:35;;;;;;;7.57;2.15;;;14.30;95.30;;;;;;5075512;28;20024;-77
2023/10/05 04:55:18;;;;;;;6.28;2.22;;;14.30;95.30;;;;;;5057737;28;20052;-77
2023/10/05 04:57:52;;;;;;;5.57;2.20;;;14.40;95.20;;;;;;5074694;28;20051;-76
2023/10/05 05:03:16;;;;;;;6.43;2.15;;;14.40;95.10;;;;;;5075431;28;20029;-77
2023/10/05 05:06:28;;;;;;;8.38;2.10;;;14.40;95.10;;;;;;5075422;28;20033;-77
2023/10/05 05:08:38;;;;;;;6.93;2.08;;;14.30;95.20;;;;;;5064474;28;20029;-77
2023/10/05 05:11:18;;;;;;;5.75;1.60;;;14.30;95.20;;;;;;5057650;28;20029;-77
2023/10/05 05:13:51;;;;;;;6.43;1.90;;;14.20;95.20;;;;;;5075188;28;20023;-78
2023/10/05 05:16:16;;;;;;;5.63;2.40;;;14.20;95.40;;;;;;5057362;28;20024;-77
2023/10/05 05:18:43;;;;;;;6.00;1.92;;;14.20;95.30;;;;;;5074975;28;20029;-77
2023/10/05 05:21:10;;;;;;;6.88;1.90;;;14.20;95.30;;;;;;5057384;28;20013;-77
2023/10/05 05:23:35;;;;;;;5.95;2.00;;;14.20;95.30;;;;;;5074967;28;20021;-77
2023/10/05 05:26:03;;;;;;;7.38;2.63;;;14.20;95.30;;;;;;5074857;28;20025;-77
2023/10/05 05:28:38;;;;;;;5.65;2.20;;;14.20;95.30;;;;;;5057288;28;20071;-77
2023/10/05 05:31:16;;;;;;;5.13;1.95;;;14.10;95.30;;;;;;5074851;28;20078;-76
2023/10/05 05:33:44;;;;;;;5.00;2.20;;;14.10;95.40;;;;;;5041177;28;20084;-77
2023/10/05 05:36:11;;;;;;;4.82;1.85;;;14.10;95.40;;;;;;5074510;28;20049;-77
2023/10/05 05:38:38;;;;;;;6.85;2.33;;;14.10;95.30;;;;;;5056854;28;20048;-77
2023/10/05 05:41:19;;;;;;;5.00;2.13;;;14.10;95.30;;;;;;5056863;28;20028;-77
2023/10/05 05:43:45;;;;;;;4.95;2.13;;;14.10;95.40;;;;;;5056919;28;20033;-77
2023/10/05 05:46:23;;;;;;;10.27;2.30;;;14.00;95.40;;;;;;5056862;28;20514;-77
2023/10/05 05:48:52;;;;;;;6.47;2.20;;;14.00;95.50;;;;;;5074505;28;20021;-77
2023/10/05 05:51:24;;;;;;;4.30;2.08;;;14.00;95.50;;;;;;5074398;28;20071;-77
2023/10/05 05:53:50;;;;;;;8.35;2.35;;;14.00;95.50;;;;;;5074563;28;20025;-77
2023/10/05 05:56:19;;;;;;;5.75;2.47;;;14.00;95.50;;;;;;5056630;28;20025;-77
2023/10/05 05:58:48;;;;;;;9.05;2.58;;;14.00;95.40;;;;;;5074311;28;20032;-77
2023/10/05 06:01:14;;;;;;;8.52;2.72;;;14.00;95.50;;;;;;5073292;28;20029;-77
2023/10/05 06:03:43;;;;;;;9.73;2.78;;;14.00;95.50;;;;;;5074203;28;20029;-78
2023/10/05 06:06:09;;;;;;;4.82;2.15;;;14.00;95.60;;;;;;5056486;28;20024;-77
2023/10/05 06:08:35;;;;;;;14.18;2.55;;;14.00;95.60;;;;;;5074040;28;20036;-77
2023/10/05 06:11:06;;;;;;;6.65;2.70;;;13.90;95.70;;;;;;5074026;28;20021;-77
2023/10/05 06:13:36;;;;;;;5.20;2.28;;;13.90;95.90;;;;;;5056367;28;20052;-77
2023/10/05 06:16:09;;;;;;;8.57;2.47;;;13.90;96.00;;;;;;5056270;28;20025;-77
2023/10/05 06:18:36;;;;;;;5.88;2.15;;;14.00;95.90;;;;;;5056243;28;20021;-77
2023/10/05 06:21:03;;;;;;;7.28;2.42;;;14.00;95.90;;;;;;5073841;28;20036;-77
2023/10/05 06:23:28;;;;;;;5.43;2.35;;;14.00;95.90;;;;;;5073824;28;20025;-76
2023/10/05 06:25:56;;;;;;;8.55;2.42;;;14.00;95.90;;;;;;5073770;28;20056;-76
2023/10/05 06:28:22;;;;;;;7.35;2.22;;;14.00;95.90;;;;;;5056020;28;20076;-77
2023/10/05 06:30:50;;;;;;;8.43;2.60;;;14.00;95.90;;;;;;5056077;28;20021;-76
2023/10/05 06:33:16;;;;;;;8.38;2.20;;;14.00;96.00;;;;;;5055951;28;20063;-77
2023/10/05 06:35:41;;;;;;;8.57;2.72;;;14.10;95.90;;;;;;5073373;28;20113;-77
2023/10/05 06:38:08;;;;;;;6.38;2.33;;;14.20;95.80;;;;;;5073572;28;20048;-77
2023/10/05 06:40:34;;;;;;;7.68;2.70;;;14.10;95.90;;;;;;5055836;28;20028;-77
2023/10/05 06:43:00;;;;;;;6.72;2.40;;;14.10;96.00;;;;;;5073500;28;20022;-77
2023/10/05 06:45:25;;;;;;;6.30;2.45;;;14.10;96.00;;;;;;5073497;28;20017;-77
2023/10/05 06:47:51;;;;;;;6.40;2.22;;;14.20;96.00;;;;;;5073421;28;20018;-76
2023/10/05 06:50:17;;;;;;;7.63;2.35;;;14.20;96.00;;;;;;5055759;28;20052;-77
2023/10/05 06:52:46;;;;;;;6.75;2.40;;;14.20;96.00;;;;;;5072448;28;20059;-77
2023/10/05 06:55:14;;;;;;;5.90;2.05;;;14.20;96.10;;;;;;5073256;28;20021;-77
2023/10/05 06:57:43;;;;;;;8.07;2.60;;;14.20;96.50;;;;;;5073289;28;20095;-77
2023/10/05 07:00:16;;;;;;;6.95;2.75;;;14.20;96.20;;;;;;5055523;28;20035;-77
2023/10/05 07:02:43;;;;;;;9.73;2.33;;;14.20;96.40;;;;;;5073333;28;20104;-77
2023/10/05 07:05:10;;;;;;;8.43;3.38;;;14.20;96.40;;;;;;5073273;28;20017;-78
2023/10/05 07:07:36;;;;;;;9.73;2.72;;;14.20;96.40;;;;;;5055723;28;20040;-77
2023/10/05 07:10:06;;;;;;;7.60;2.60;;;14.30;96.50;;;;;;5072326;28;20033;-77
2023/10/05 07:12:35;;;;;;;6.45;2.50;;;14.20;96.60;;;;;;5054934;28;20059;-77
2023/10/05 07:15:07;;;;;;;6.30;2.78;;;14.20;96.60;;;;;;5073151;28;20021;-77
2023/10/05 07:17:33;;;;;;;;;;;14.20;96.60;;;;;;5072693;28;20089;-77
2023/10/05 07:19:59;;;;;;;5.68;2.45;;;14.20;96.60;;;;;;5072986;28;20279;-77
2023/10/05 07:22:25;;;;;;;6.53;2.80;;;14.30;96.60;;;;;;5055375;28;20047;-77
2023/10/05 07:24:50;;;;;;;7.63;2.75;;;14.30;96.60;;;;;;5073115;28;20022;-78
2023/10/05 07:27:17;;;;;;;5.53;2.58;;;14.30;96.60;;;;;;5055325;28;20037;-78
2023/10/05 07:29:46;;;;;;;9.15;3.22;;;14.30;96.60;;;;;;5055289;28;20097;-78
2023/10/05 07:32:12;;;;;;;9.77;2.80;;;14.40;96.50;;;;;;5055276;28;20021;-78
2023/10/05 07:34:41;;;;;;;8.90;2.78;;;14.40;96.50;;;;;;5054991;28;20032;-77
2023/10/05 07:37:10;;;;;;;7.32;2.65;;;14.40;96.30;;;;;;5055154;28;20021;-77
2023/10/05 07:39:41;;;;;;;11.25;3.72;;;14.50;96.30;;;;;;5055254;28;20123;-77
2023/10/05 07:42:10;;;;;;;7.95;2.83;;;14.50;96.30;;;;;;5055150;28;20029;-74
2023/10/05 07:44:37;;;;;;;9.07;2.70;;;14.60;96.20;;;;;;5072819;28;20028;-75
2023/10/05 07:47:06;;;;;;;7.55;2.67;;;14.60;96.20;;;;;;5055174;28;20071;-75
2023/10/05 07:49:34;;;;;;;5.97;2.78;;;14.60;96.30;;;;;;5072939;28;20021;-75
2023/10/05 07:52:07;;;;;;;7.20;2.60;;;14.70;96.20;;;;;;5072765;28;20032;-75
2023/10/05 07:54:34;;;;;;;6.47;2.38;;;14.70;96.00;;;;;;5072015;28;20372;-75
2023/10/05 07:57:01;;;;;;;7.82;2.65;;;14.70;96.00;;;;;;5072713;28;20028;-75
2023/10/05 07:59:28;;;;;;;9.20;3.17;;;14.70;96.00;;;;;;5071665;28;20029;-77
2023/10/05 08:01:55;;;;;;;7.43;2.50;;;14.70;96.00;;;;;;5055018;28;20029;-76
2023/10/05 08:04:22;;;;;;;7.13;3.13;;;14.80;96.10;;;;;;5071909;28;20032;-77
2023/10/05 08:06:50;;;;;;;10.27;3.20;;;14.90;95.90;;;;;;5071729;28;20028;-77
2023/10/05 08:09:20;;;;;;;9.73;3.00;;;15.00;96.00;;;;;;5072543;28;20025;-77
2023/10/05 08:11:50;;;;;;;9.75;2.58;;;15.10;95.90;;;;;;5071763;28;20030;-77
2023/10/05 08:14:17;;;;;;;8.32;3.05;;;15.10;95.70;;;;;;5072587;28;20025;-77
2023/10/05 08:16:44;;;;;;;9.40;3.42;;;15.10;95.60;;;;;;5072576;28;20021;-78
2023/10/05 08:19:10;;;;;;;9.43;3.05;;;15.20;95.50;;;;;;5071622;28;20029;-78
2023/10/05 08:21:35;;;;;;;6.78;3.00;;;15.20;95.90;;;;;;5054859;28;20032;-77
2023/10/05 08:24:02;;;;;;;6.68;3.17;;;15.30;95.50;;;;;;5054960;28;20024;-77
2023/10/05 08:26:28;;;;;;;6.43;2.97;;;15.30;95.40;;;;;;5058707;28;20021;-77
2023/10/05 08:28:57;;;;;;;7.35;3.17;;;15.40;95.10;;;;;;5058258;28;20388;-77
2023/10/05 08:31:24;;;;;;;8.77;3.65;;;15.40;94.90;;;;;;5058284;28;20036;-77
2023/10/05 08:33:53;;;;;;;11.57;2.97;;;15.40;94.80;;;;;;5075861;28;20032;-77
2023/10/05 08:36:20;;;;;;;9.18;3.17;;;15.50;94.90;;;;;;5075754;28;20449;-77
2023/10/05 08:38:49;;;;;;;8.75;3.40;;;15.60;94.50;;;;;;5075704;28;20036;-77
2023/10/05 08:41:36;;;;;;;7.22;3.33;;;15.60;94.50;;;;;;5042090;28;20021;-77
2023/10/05 08:44:10;;;;;;;7.45;3.72;;;15.70;94.50;;;;;;5058141;28;20049;-77
2023/10/05 08:46:42;;;;;;;6.68;3.03;;;15.70;94.60;;;;;;5075727;28;20019;-77
2023/10/05 08:49:10;;;;;;;7.97;3.40;;;15.80;94.40;;;;;;5058043;28;20053;-77
2023/10/05 08:51:39;;;;;;;7.20;3.42;;;15.80;94.30;;;;;;5074686;28;20036;-77
2023/10/05 08:54:09;;;;;;;6.97;3.10;;;15.80;94.20;;;;;;5075554;28;20159;-78
2023/10/05 08:56:47;;;;;;;13.95;3.83;;;16.00;94.20;;;;;;5074845;28;20048;-77
2023/10/05 08:59:14;;;;;;;9.75;3.55;;;16.00;94.50;;;;;;5058293;28;20025;-77
2023/10/05 09:01:50;;;;;;;7.85;3.58;;;16.00;94.30;;;;;;5057737;28;20452;-77
2023/10/05 09:06:56;;;;;;;9.30;3.05;;;16.10;93.80;;;;;;5075368;28;20108;-77
2023/10/05 09:09:30;;;;;;;11.52;3.08;;;16.20;93.80;;;;;;5075225;28;20033;-77
2023/10/05 09:11:56;;;;;;;6.70;3.90;;;16.30;93.70;;;;;;5057604;28;20041;-77
2023/10/05 09:14:38;;;;;;;9.45;3.08;;;16.30;93.60;;;;;;5075154;28;20049;-77
2023/10/05 09:17:10;;;;;;;7.60;2.92;;;16.30;93.50;;;;;;5057523;28;20029;-77
2023/10/05 09:19:37;;;;;;;7.90;2.97;;;16.30;93.50;;;;;;5057385;28;20045;-77
2023/10/05 09:22:14;;;;;;;6.75;2.72;;;16.30;93.50;;;;;;5057271;28;20013;-77
2023/10/05 09:24:43;;;;;;;6.18;3.35;;;16.30;93.50;;;;;;5057359;28;20021;-77
2023/10/05 09:27:16;;;;;;;8.85;3.22;;;16.30;93.50;;;;;;5057266;28;20116;-77
2023/10/05 09:29:43;;;;;;;8.07;3.80;;;16.30;93.40;;;;;;5074936;28;20025;-77
2023/10/05 09:32:30;;;;;;;9.00;3.22;;;16.30;93.50;;;;;;5074822;28;20029;-77
2023/10/05 09:34:57;;;;;;;7.80;3.40;;;16.30;93.50;;;;;;5056666;28;20087;-77
2023/10/05 09:37:27;;;;;;;10.40;3.28;;;16.30;93.80;;;;;;5056953;28;20024;-77
2023/10/05 09:39:59;;;;;;;11.13;3.38;;;16.30;93.70;;;;;;5056801;28;20028;-78
2023/10/05 09:42:26;;;;;;;8.43;3.15;;;16.40;93.80;;;;;;5057107;28;20025;-77
2023/10/05 09:44:57;;;;;;;7.90;3.08;;;16.40;93.80;;;;;;5056844;28;20092;-77
2023/10/05 09:47:40;;;;;;;10.52;3.22;;;16.40;93.60;;;;;;5074578;28;20074;-77
2023/10/05 09:50:13;;;;;;;11.00;3.28;;;16.50;93.40;;;;;;5074462;28;20021;-77
2023/10/05 09:52:45;;;;;;;9.30;2.88;;;16.40;93.10;;;;;;5074494;28;20045;-77
2023/10/05 09:55:17;;;;;;;6.47;2.40;;;16.40;93.10;;;;;;5074400;28;20029;-78
2023/10/05 09:57:55;;;;;;;6.70;2.67;;;16.40;93.30;;;;;;5074496;28;20135;-77
2023/10/05 10:00:30;;;;;;;4.03;2.58;;;16.40;93.40;;;;;;5074303;28;20287;-77
2023/10/05 10:03:03;;;;;;;6.72;2.88;;;16.40;93.50;;;;;;5074253;28;20021;-77
2023/10/05 10:05:42;;;;;;;9.57;3.28;;;16.40;93.60;;;;;;5074222;28;20108;-77
2023/10/05 10:08:30;;;;;;;8.20;3.42;;;16.40;93.40;;;;;;5056557;28;20051;-77
2023/10/05 10:11:19;;;;;;;7.47;3.22;;;16.40;92.90;;;;;;5074049;28;20029;-77
2023/10/05 10:14:00;;;;;;;7.03;2.72;;;16.50;93.30;;;;;;5074057;28;20056;-77
2023/10/05 10:16:27;;;;;;;7.57;3.00;;;16.50;93.50;;;;;;5056249;28;20047;-77
2023/10/05 10:19:07;;;;;;;7.57;2.97;;;16.50;93.30;;;;;;5056272;28;20067;-78
2023/10/05 10:21:47;;;;;;;11.70;3.40;;;16.40;92.90;;;;;;5073967;28;20025;-77
2023/10/05 10:24:20;;;;;;;8.50;2.80;;;16.50;93.30;;;;;;5056168;28;20090;-77
2023/10/05 10:26:53;;;;;;;7.60;3.00;;;16.50;93.30;;;;;;5073818;28;20089;-77
2023/10/05 10:29:22;;;;;;;8.98;3.05;;;16.60;93.40;;;;;;5073762;28;20025;-77
2023/10/05 10:32:19;;;;;;;8.85;2.88;;;16.60;93.00;;;;;;5073705;28;20033;-78
2023/10/05 10:34:55;;;;;;;7.32;2.97;;;16.70;93.10;;;;;;5073570;28;20104;-77
2023/10/05 10:37:42;;;;;;;8.82;2.95;;;16.80;92.90;;;;;;5055934;28;20056;-77
2023/10/05 10:40:27;;;;;;;8.38;2.78;;;16.90;93.00;;;;;;5073494;28;20036;-77
2023/10/05 10:45:32;;;;;;;6.30;2.30;;;17.10;92.80;;;;;;5073537;28;20033;-77
2023/10/05 10:47:59;;;;;;;10.57;2.60;;;17.00;92.10;;;;;;5072659;28;20020;-77
2023/10/05 10:50:31;;;;;;;8.00;2.75;;;17.10;92.40;;;;;;5055709;28;20147;-77
2023/10/05 10:53:00;;;;;;;10.80;3.75;;;17.10;92.40;;;;;;5073585;28;20055;-77
2023/10/05 10:55:32;;;;;;;8.00;2.70;;;17.10;92.40;;;;;;5055701;28;20035;-77
2023/10/05 10:58:03;;;;;;;9.38;3.00;;;17.20;92.40;;;;;;5055619;28;20029;-77
2023/10/05 11:03:12;;;;;;;7.18;2.70;;;17.20;92.10;;;;;;5073341;28;20098;-77
2023/10/05 11:05:43;;;;;;;8.52;2.75;;;17.20;91.90;;;;;;5055542;28;20025;-77
2023/10/05 11:08:11;;;;;;;8.93;2.70;;;17.30;91.60;;;;;;5055528;28;20030;-77
2023/10/05 11:10:38;;;;;;;16.40;2.88;;;17.30;91.70;;;;;;5073158;28;20297;-76
2023/10/05 11:13:18;;;;;;;8.98;2.58;;;17.40;91.70;;;;;;5055522;28;20035;-77
2023/10/05 11:15:59;;;;;;;9.70;2.70;;;17.50;91.90;;;;;;5073132;28;20036;-77
2023/10/05 11:18:34;;;;;;;9.35;3.20;;;17.70;91.60;;;;;;5073101;28;20033;-76
2023/10/05 11:21:23;;;;;;;7.35;2.88;;;17.70;91.30;;;;;;5073218;28;20029;-76
2023/10/05 11:23:57;;;;;;;9.57;2.65;;;17.80;91.20;;;;;;5073061;28;20021;-77
2023/10/05 11:28:57;;;;;;;7.40;2.72;;;17.80;90.90;;;;;;5073107;28;20037;-77
2023/10/05 11:31:26;;;;;;;12.25;2.80;;;17.80;91.00;;;;;;5055308;28;20028;-77
2023/10/05 11:34:00;;;;;;;8.50;2.50;;;17.80;90.80;;;;;;5072922;28;20025;-77
2023/10/05 11:36:33;;;;;;;8.32;2.90;;;17.90;91.20;;;;;;5072839;28;20060;-77
2023/10/05 11:39:00;;;;;;;6.47;2.83;;;17.90;91.00;;;;;;5072882;28;20033;-77
2023/10/05 11:41:29;;;;;;;5.78;2.70;;;17.90;90.80;;;;;;5055227;28;20097;-77
2023/10/05 11:43:55;;;;;;;9.18;2.45;;;18.00;91.00;;;;;;5072788;28;20025;-78
2023/10/05 11:46:44;;;;;;;8.73;2.88;;;18.20;90.70;;;;;;5072858;28;20084;-77
2023/10/05 11:49:10;;;;;;;9.20;3.05;;;18.40;90.50;;;;;;5055215;28;20040;-77
2023/10/05 11:51:42;;;;;;;6.18;2.53;;;18.50;90.10;;;;;;5055101;28;20059;-77
2023/10/05 11:54:12;;;;;;;5.63;2.58;;;18.70;90.10;;;;;;5072823;28;20048;-77
2023/10/05 11:56:41;;;;;;;7.85;2.72;;;18.80;89.90;;;;;;5072695;28;20032;-77
2023/10/05 11:59:08;;;;;;;10.23;2.80;;;18.90;89.90;;;;;;5056653;28;20025;-77
2023/10/05 12:01:34;;;;;;;5.05;2.60;;;18.90;89.10;;;;;;5058854;28;20017;-77
2023/10/05 12:04:04;;;;;;;6.60;2.55;;;18.90;89.50;;;;;;5076527;28;20043;-77
2023/10/05 12:06:30;;;;;;;6.13;2.58;;;18.90;88.40;;;;;;5076448;28;20021;-77
2023/10/05 12:11:49;;;;;;;8.07;2.78;;;19.00;87.80;;;;;;5052821;28;20033;-77
2023/10/05 12:14:16;;;;;;;6.18;3.10;;;19.00;88.10;;;;;;5076303;28;20090;-77
2023/10/05 12:16:42;;;;;;;5.78;2.97;;;19.10;89.30;;;;;;5076258;28;20109;-77
2023/10/05 12:19:13;;;;;;;7.43;2.92;;;19.10;87.30;;;;;;5058462;28;20040;-77
2023/10/05 12:21:44;;;;;;;8.47;3.23;;;19.10;87.60;;;;;;5076338;28;20029;-77
2023/10/05 12:24:13;;;;;;;7.50;3.10;;;19.10;87.50;;;;;;5076128;28;20076;-77
2023/10/05 12:26:42;;;;;;;5.68;2.83;;;19.00;87.40;;;;;;5058368;28;20021;-77
2023/10/05 12:29:12;;;;;;;9.10;2.92;;;19.00;85.60;;;;;;5058342;28;20081;-77
2023/10/05 12:31:45;;;;;;;6.57;2.50;;;19.00;86.50;;;;;;5075183;28;20051;-77
2023/10/05 12:34:17;;;;;;;4.50;2.30;;;19.00;85.60;;;;;;5058316;28;20029;-77
2023/10/05 12:36:51;;;;;;;8.73;2.60;;;19.20;86.90;;;;;;5059019;28;20053;-77
2023/10/05 12:39:18;;;;;;;8.43;3.45;;;19.30;86.60;;;;;;5074908;28;20033;-77
2023/10/05 12:41:46;;;;;;;8.15;2.72;;;19.30;86.40;;;;;;5058096;28;20044;-77
2023/10/05 12:44:15;;;;;;;6.38;2.33;;;19.40;86.10;;;;;;5075764;28;20021;-77
2023/10/05 12:46:42;;;;;;;5.53;2.70;;;19.40;86.50;;;;;;5075704;28;20036;-77
2023/10/05 12:49:11;;;;;;;4.82;2.10;;;19.40;85.50;;;;;;5058054;28;20127;-77
2023/10/05 12:51:38;;;;;;;7.20;2.17;;;19.30;84.80;;;;;;5075630;28;20043;-77
2023/10/05 12:54:17;;;;;;;6.15;1.67;;;19.10;84.30;;;;;;5074662;28;20033;-77
2023/10/05 12:56:44;;;;;;;4.35;2.28;;;19.00;84.10;;;;;;5075599;28;20017;-77
2023/10/05 12:59:10;;;;;;;5.80;1.95;;;18.90;85.40;;;;;;5057895;28;20036;-77
2023/10/05 13:01:35;;;;;;;5.80;2.10;;;18.90;86.30;;;;;;5074537;28;20029;-77
2023/10/05 13:04:05;;;;;;;5.63;1.90;;;19.00;86.00;;;;;;5057638;28;20014;-77
2023/10/05 13:06:32;;;;;;;5.82;1.90;;;18.90;85.30;;;;;;5074491;28;20028;-77
2023/10/05 13:09:02;;;;;;;5.68;1.90;;;18.90;85.00;;;;;;5075277;28;20048;-77
2023/10/05 13:11:31;;;;;;;5.35;2.05;;;18.90;84.00;;;;;;5073620;28;20021;-77
2023/10/05 13:13:57;;;;;;;6.03;2.03;;;19.00;84.20;;;;;;5057509;28;20037;-77
2023/10/05 13:16:22;;;;;;;3.67;1.63;;;19.10;83.50;;;;;;5075146;28;20052;-77
2023/10/05 13:18:54;;;;;;;5.57;2.30;;;19.00;83.50;;;;;;5074177;28;20033;-77
2023/10/05 13:21:22;;;;;;;5.82;1.90;;;18.90;83.80;;;;;;5057504;28;20045;-78
2023/10/05 13:23:48;;;;;;;5.45;1.70;;;19.00;84.20;;;;;;5057923;28;20017;-77
2023/10/05 13:26:16;;;;;;;5.45;1.88;;;19.00;84.70;;;;;;5074149;28;20073;-77